createdAt,value
2022-08-28T00:00:58.930Z,3.35
2022-08-28T00:03:30.397Z,3.05
2022-08-28T00:05:57.469Z,3.53
2022-08-28T00:08:27.231Z,3.38
2022-08-28T00:10:57.331Z,3.70
2022-08-28T00:13:25.342Z,3.38
2022-08-28T00:15:55.238Z,2.72
2022-08-28T00:18:24.793Z,3.45
2022-08-28T00:20:53.483Z,3.55
2022-08-28T00:23:21.176Z,2.63
2022-08-28T00:25:48.262Z,2.88
2022-08-28T00:28:23.769Z,3.30
2022-08-28T00:30:53.602Z,3.53
2022-08-28T00:33:24.556Z,3.40
2022-08-28T00:35:54.108Z,3.30
2022-08-28T00:38:23.322Z,3.35
2022-08-28T00:40:56.153Z,3.42
2022-08-28T00:43:33.192Z,3.38
2022-08-28T00:46:00.208Z,3.42
2022-08-28T00:48:27.248Z,3.55
2022-08-28T00:51:00.601Z,3.28
2022-08-28T00:53:30.034Z,3.33
2022-08-28T00:56:01.600Z,3.60
2022-08-28T00:58:34.127Z,3.05
2022-08-28T01:01:01.584Z,3.78
2022-08-28T01:03:28.699Z,3.30
2022-08-28T01:05:57.676Z,3.28
2022-08-28T01:08:24.505Z,2.80
2022-08-28T01:11:01.153Z,3.70
2022-08-28T01:13:28.588Z,3.78
2022-08-28T01:15:56.104Z,3.30
2022-08-28T01:18:23.583Z,3.28
2022-08-28T01:20:58.952Z,3.75
2022-08-28T01:23:41.510Z,3.17
2022-08-28T01:26:11.896Z,3.20
2022-08-28T01:28:39.042Z,3.58
2022-08-28T01:31:06.215Z,3.45
2022-08-28T01:33:33.037Z,3.28
2022-08-28T01:35:59.870Z,3.60
2022-08-28T01:38:28.306Z,3.28
2022-08-28T01:40:57.297Z,3.60
2022-08-28T01:43:26.234Z,3.50
2022-08-28T01:45:56.395Z,3.90
2022-08-28T01:48:26.413Z,3.55
2022-08-28T01:50:53.466Z,4.10
2022-08-28T01:53:24.750Z,3.65
2022-08-28T01:55:53.247Z,3.08
2022-08-28T01:58:22.029Z,2.72
2022-08-28T02:00:49.312Z,3.65
2022-08-28T02:03:16.242Z,3.13
2022-08-28T02:05:43.133Z,3.47
2022-08-28T02:08:10.635Z,3.40
2022-08-28T02:10:39.805Z,3.83
2022-08-28T02:13:07.913Z,3.60
2022-08-28T02:15:37.494Z,3.38
2022-08-28T02:18:05.343Z,3.45
2022-08-28T02:20:33.405Z,3.88
2022-08-28T02:23:00.536Z,3.13
2022-08-28T02:25:28.668Z,3.95
2022-08-28T02:27:56.632Z,3.08
2022-08-28T02:30:23.831Z,4.03
2022-08-28T02:32:52.399Z,2.85
2022-08-28T02:35:20.557Z,2.65
2022-08-28T02:37:47.870Z,3.08
2022-08-28T02:40:17.085Z,3.67
2022-08-28T02:42:44.231Z,3.15
2022-08-28T02:45:12.550Z,3.05
2022-08-28T02:47:40.081Z,3.33
2022-08-28T02:50:10.930Z,2.92
2022-08-28T02:52:38.178Z,3.17
2022-08-28T02:55:06.486Z,3.10
2022-08-28T02:57:33.458Z,2.95
2022-08-28T03:00:00.354Z,3.20
2022-08-28T03:02:27.264Z,3.22
2022-08-28T03:04:54.135Z,3.40
2022-08-28T03:07:22.393Z,2.70
2022-08-28T03:09:50.383Z,3.15
2022-08-28T03:12:17.218Z,2.88
2022-08-28T03:14:44.025Z,3.20
2022-08-28T03:17:10.835Z,3.03
2022-08-28T03:19:37.619Z,2.53
2022-08-28T03:22:04.675Z,3.28
2022-08-28T03:24:32.922Z,2.78
2022-08-28T03:26:59.610Z,2.97
2022-08-28T03:29:26.472Z,3.00
2022-08-28T03:31:53.292Z,3.08
2022-08-28T03:34:20.128Z,3.05
2022-08-28T03:36:47.138Z,2.55
2022-08-28T03:39:14.011Z,2.70
2022-08-28T03:41:42.114Z,3.15
2022-08-28T03:44:09.003Z,2.90
2022-08-28T03:46:36.357Z,3.13
2022-08-28T03:49:04.664Z,3.08
2022-08-28T03:51:33.856Z,2.60
2022-08-28T03:54:02.200Z,2.65
2022-08-28T03:56:30.573Z,2.60
2022-08-28T03:59:00.877Z,3.58
2022-08-28T04:01:28.007Z,2.78
2022-08-28T04:03:55.114Z,2.72
2022-08-28T04:06:22.132Z,2.55
2022-08-28T04:08:48.905Z,2.80
2022-08-28T04:11:15.705Z,3.40
2022-08-28T04:13:42.491Z,2.90
2022-08-28T04:16:14.163Z,2.65
2022-08-28T04:18:42.625Z,2.30
2022-08-28T04:21:12.139Z,2.42
2022-08-28T04:23:40.287Z,2.83
2022-08-28T04:26:08.366Z,2.40
2022-08-28T04:28:35.587Z,2.20
2022-08-28T04:31:03.086Z,2.58
2022-08-28T04:33:31.475Z,2.20
2022-08-28T04:36:02.232Z,2.45
2022-08-28T04:38:28.980Z,2.72
2022-08-28T04:40:55.987Z,1.83
2022-08-28T04:43:25.746Z,2.35
2022-08-28T04:45:52.539Z,2.10
2022-08-28T04:48:19.465Z,2.25
2022-08-28T04:50:49.253Z,2.33
2022-08-28T04:53:18.627Z,3.65
2022-08-28T04:55:54.210Z,3.10
2022-08-28T04:58:24.078Z,2.63
2022-08-28T05:00:52.361Z,2.83
2022-08-28T05:03:25.137Z,2.42
2022-08-28T05:05:54.428Z,2.10
2022-08-28T05:08:23.224Z,2.50
2022-08-28T05:10:50.463Z,1.77
2022-08-28T05:13:17.875Z,2.03
2022-08-28T05:15:47.646Z,2.10
2022-08-28T05:18:15.605Z,2.45
2022-08-28T05:20:44.933Z,2.22
2022-08-28T05:23:14.078Z,2.33
2022-08-28T05:25:42.981Z,2.50
2022-08-28T05:28:12.557Z,2.15
2022-08-28T05:30:41.349Z,2.20
2022-08-28T05:33:09.545Z,2.47
2022-08-28T05:35:37.656Z,1.90
2022-08-28T05:38:04.534Z,1.90
2022-08-28T05:40:33.074Z,1.92
2022-08-28T05:43:00.094Z,2.40
2022-08-28T05:45:26.784Z,1.77
2022-08-28T05:47:53.489Z,1.83
2022-08-28T05:50:20.405Z,1.92
2022-08-28T05:52:47.143Z,2.25
2022-08-28T05:55:13.959Z,1.65
2022-08-28T05:57:42.121Z,1.85
2022-08-28T06:00:10.377Z,1.85
2022-08-28T06:02:37.098Z,2.15
2022-08-28T06:05:04.335Z,1.92
2022-08-28T06:07:31.036Z,1.92
2022-08-28T06:09:57.723Z,1.80
2022-08-28T06:12:24.476Z,1.73
2022-08-28T06:14:52.733Z,1.60
2022-08-28T06:17:23.686Z,1.48
2022-08-28T06:19:50.646Z,1.58
2022-08-28T06:22:17.330Z,1.65
2022-08-28T06:24:44.048Z,1.70
2022-08-28T06:27:10.941Z,1.80
2022-08-28T06:29:37.753Z,2.13
2022-08-28T06:32:06.045Z,1.20
2022-08-28T06:34:32.847Z,1.60
2022-08-28T06:36:59.577Z,1.20
2022-08-28T06:39:26.381Z,1.73
2022-08-28T06:41:53.160Z,1.42
2022-08-28T06:44:21.167Z,1.25
2022-08-28T06:46:49.472Z,1.52
2022-08-28T06:49:18.281Z,1.70
2022-08-28T06:51:44.975Z,1.30
2022-08-28T06:54:11.794Z,2.05
2022-08-28T06:56:38.854Z,1.42
2022-08-28T06:59:05.703Z,1.40
2022-08-28T07:01:34.928Z,2.30
2022-08-28T07:04:06.783Z,1.95
2022-08-28T07:06:53.030Z,1.77
2022-08-28T07:09:21.538Z,1.50
2022-08-28T07:11:48.229Z,1.83
2022-08-28T07:14:14.958Z,1.58
2022-08-28T07:16:42.149Z,1.20
2022-08-28T07:19:15.097Z,1.52
2022-08-28T07:21:45.787Z,1.33
2022-08-28T07:24:14.391Z,1.55
2022-08-28T07:26:42.263Z,1.48
2022-08-28T07:29:11.424Z,1.70
2022-08-28T07:31:40.645Z,1.20
2022-08-28T07:34:08.517Z,1.15
2022-08-28T07:36:35.464Z,1.48
2022-08-28T07:39:04.393Z,1.50
2022-08-28T07:41:33.150Z,1.42
2022-08-28T07:44:00.082Z,1.48
2022-08-28T07:46:27.153Z,1.17
2022-08-28T07:48:53.872Z,1.58
2022-08-28T07:51:20.855Z,1.85
2022-08-28T07:53:47.652Z,1.30
2022-08-28T07:56:15.719Z,1.60
2022-08-28T07:58:42.651Z,1.65
2022-08-28T08:01:09.423Z,2.00
2022-08-28T08:03:36.183Z,1.25
2022-08-28T08:06:05.136Z,1.70
2022-08-28T08:08:33.729Z,1.50
2022-08-28T08:11:04.254Z,1.55
2022-08-28T08:13:37.052Z,1.52
2022-08-28T08:16:07.614Z,1.50
2022-08-28T08:18:34.556Z,1.48
2022-08-28T08:21:05.660Z,1.55
2022-08-28T08:23:32.611Z,1.45
2022-08-28T08:26:01.494Z,1.50
2022-08-28T08:28:28.476Z,1.80
2022-08-28T08:31:09.117Z,1.40
2022-08-28T08:33:38.095Z,1.83
2022-08-28T08:36:05.380Z,1.92
2022-08-28T08:38:33.662Z,1.83
2022-08-28T08:41:02.581Z,1.50
2022-08-28T08:43:31.591Z,1.73
2022-08-28T08:45:58.756Z,1.60
2022-08-28T08:48:32.173Z,1.38
2022-08-28T08:51:04.652Z,1.63
2022-08-28T08:53:43.888Z,1.50
2022-08-28T08:56:14.498Z,1.27
2022-08-28T08:58:43.629Z,1.73
2022-08-28T09:01:17.613Z,1.50
2022-08-28T09:03:54.013Z,1.58
2022-08-28T09:06:30.031Z,1.63
2022-08-28T09:08:59.827Z,1.50
2022-08-28T09:11:36.705Z,1.60
2022-08-28T09:14:12.187Z,1.63
2022-08-28T09:16:43.219Z,1.63
2022-08-28T09:19:15.371Z,1.50
2022-08-28T09:21:44.679Z,1.50
2022-08-28T09:24:19.513Z,1.40
2022-08-28T09:26:53.149Z,2.10
2022-08-28T09:29:28.607Z,1.73
2022-08-28T09:31:55.943Z,1.70
2022-08-28T09:34:28.758Z,1.70
2022-08-28T09:36:57.333Z,1.60
2022-08-28T09:39:26.789Z,1.48
2022-08-28T09:42:01.707Z,1.40
2022-08-28T09:44:28.514Z,1.80
2022-08-28T09:46:55.188Z,1.55
2022-08-28T09:49:26.853Z,1.58
2022-08-28T09:51:54.406Z,2.55
2022-08-28T09:54:29.145Z,1.90
2022-08-28T09:56:56.545Z,1.80
2022-08-28T09:59:26.470Z,1.63
2022-08-28T10:02:20.673Z,1.30
2022-08-28T10:04:58.728Z,1.63
2022-08-28T10:07:34.947Z,1.23
2022-08-28T10:10:15.248Z,1.70
2022-08-28T10:12:57.417Z,1.67
2022-08-28T10:15:32.602Z,1.77
2022-08-28T10:18:17.127Z,1.55
2022-08-28T10:20:55.125Z,1.77
2022-08-28T10:23:29.730Z,1.55
2022-08-28T10:26:08.079Z,1.30
2022-08-28T10:28:44.732Z,1.45
2022-08-28T10:31:20.317Z,1.13
2022-08-28T10:34:08.395Z,1.60
2022-08-28T10:36:36.734Z,1.30
2022-08-28T10:39:25.620Z,1.38
2022-08-28T10:41:57.262Z,1.27
2022-08-28T10:44:29.904Z,1.67
2022-08-28T10:46:58.702Z,1.15
2022-08-28T10:49:31.989Z,1.80
2022-08-28T10:52:06.641Z,1.27
2022-08-28T10:54:44.659Z,1.40
2022-08-28T10:57:29.623Z,1.60
2022-08-28T10:59:58.222Z,1.50
2022-08-28T11:02:26.995Z,1.40
2022-08-28T11:04:58.468Z,1.63
2022-08-28T11:07:33.906Z,1.63
2022-08-28T11:10:18.652Z,1.30
2022-08-28T11:12:45.567Z,1.67
2022-08-28T11:15:41.399Z,2.30
2022-08-28T11:18:55.170Z,1.50
2022-08-28T11:21:27.731Z,1.38
2022-08-28T11:24:15.195Z,1.55
2022-08-28T11:26:59.096Z,2.00
2022-08-28T11:33:01.136Z,1.60
2022-08-28T11:35:51.061Z,2.35
2022-08-28T11:38:54.007Z,1.65
2022-08-28T11:41:24.441Z,1.70
2022-08-28T11:44:12.249Z,1.75
2022-08-28T11:46:41.600Z,1.38
2022-08-28T11:49:40.461Z,1.52
2022-08-28T11:52:20.023Z,1.75
2022-08-28T11:54:55.541Z,1.20
2022-08-28T11:57:28.862Z,1.40
2022-08-28T12:00:10.167Z,1.92
2022-08-28T12:02:59.137Z,1.65
2022-08-28T12:05:50.492Z,1.60
2022-08-28T12:09:08.216Z,1.77
2022-08-28T12:12:00.561Z,1.20
2022-08-28T12:15:04.247Z,1.40
2022-08-28T12:17:55.641Z,1.05
2022-08-28T12:20:41.244Z,1.40
2022-08-28T12:23:44.762Z,1.10
2022-08-28T12:26:24.329Z,0.70
2022-08-28T12:28:57.559Z,0.80
2022-08-28T12:32:01.511Z,1.20
2022-08-28T12:34:40.616Z,1.10
2022-08-28T12:37:24.599Z,1.17
2022-08-28T12:39:53.475Z,0.98
2022-08-28T12:42:24.176Z,0.85
2022-08-28T12:44:50.987Z,1.15
2022-08-28T12:47:20.371Z,1.15
2022-08-28T12:49:48.606Z,1.00
2022-08-28T12:52:18.606Z,0.80
2022-08-28T12:54:46.514Z,1.05
2022-08-28T12:57:15.236Z,0.95
2022-08-28T12:59:44.151Z,1.02
2022-08-28T13:02:19.271Z,1.23
2022-08-28T13:04:55.563Z,0.88
2022-08-28T13:07:27.555Z,1.23
2022-08-28T13:09:57.230Z,1.15
2022-08-28T13:12:56.243Z,1.30
2022-08-28T13:15:57.686Z,0.93
2022-08-28T13:18:38.205Z,1.00
2022-08-28T13:21:32.720Z,0.88
2022-08-28T13:24:38.753Z,1.05
2022-08-28T13:27:15.853Z,1.02
2022-08-28T13:29:55.668Z,1.15
2022-08-28T13:32:26.093Z,1.02
2022-08-28T13:35:40.341Z,1.00
2022-08-28T13:38:10.709Z,1.20
2022-08-28T13:40:57.577Z,1.10
2022-08-28T13:43:27.287Z,1.20
2022-08-28T13:45:54.050Z,1.02
2022-08-28T13:48:23.581Z,1.17
2022-08-28T13:50:54.967Z,1.15
2022-08-28T13:53:22.750Z,1.20
2022-08-28T13:55:50.931Z,1.30
2022-08-28T13:58:17.982Z,1.42
2022-08-28T14:00:46.816Z,1.02
2022-08-28T14:03:13.902Z,1.10
2022-08-28T14:05:40.949Z,1.23
2022-08-28T14:08:09.058Z,1.27
2022-08-28T14:10:35.783Z,1.23
2022-08-28T14:13:02.655Z,1.05
2022-08-28T14:15:29.610Z,1.05
2022-08-28T14:17:56.360Z,1.35
2022-08-28T14:20:23.238Z,1.25
2022-08-28T14:22:50.769Z,1.40
2022-08-28T14:25:20.292Z,1.60
2022-08-28T14:27:47.318Z,1.65
2022-08-28T14:30:18.761Z,1.55
2022-08-28T14:32:45.511Z,1.20
2022-08-28T14:35:12.528Z,1.23
2022-08-28T14:37:41.340Z,1.35
2022-08-28T14:40:09.380Z,1.10
2022-08-28T14:42:37.912Z,1.52
2022-08-28T14:45:05.778Z,1.10
2022-08-28T14:47:38.324Z,1.13
2022-08-28T14:50:06.118Z,1.50
2022-08-28T14:52:33.016Z,1.92
2022-08-28T14:54:59.731Z,1.63
2022-08-28T14:57:26.475Z,1.60
2022-08-28T14:59:54.553Z,1.50
2022-08-28T15:02:21.321Z,1.40
2022-08-28T15:04:48.401Z,1.77
2022-08-28T15:07:22.937Z,1.70
2022-08-28T15:09:49.977Z,1.92
2022-08-28T15:12:25.976Z,1.70
2022-08-28T15:14:55.302Z,1.30
2022-08-28T15:17:34.354Z,1.13
2022-08-28T15:20:04.007Z,0.90
2022-08-28T15:22:30.852Z,1.20
2022-08-28T15:24:57.578Z,1.20
2022-08-28T15:27:24.463Z,1.23
2022-08-28T15:29:51.139Z,1.27
2022-08-28T15:32:22.370Z,1.65
2022-08-28T15:37:23.762Z,1.33
2022-08-28T15:39:50.489Z,1.60
2022-08-28T15:42:17.232Z,1.45
2022-08-28T15:44:45.609Z,1.05
2022-08-28T15:47:18.305Z,1.40
2022-08-28T15:49:57.513Z,1.33
2022-08-28T15:52:43.076Z,1.10
2022-08-28T15:55:13.073Z,1.25
2022-08-28T15:57:41.945Z,1.75
2022-08-28T16:00:10.530Z,1.27
2022-08-28T16:02:37.536Z,1.40
2022-08-28T16:05:06.375Z,1.33
2022-08-28T16:07:33.469Z,1.13
2022-08-28T16:10:04.245Z,1.88
2022-08-28T16:12:31.028Z,1.45
2022-08-28T16:14:58.043Z,1.30
2022-08-28T16:17:25.044Z,1.48
2022-08-28T16:19:52.702Z,1.58
2022-08-28T16:22:23.003Z,1.65
2022-08-28T16:24:50.239Z,1.27
2022-08-28T16:27:17.252Z,2.08
2022-08-28T16:29:46.585Z,1.52
2022-08-28T16:32:16.676Z,1.70
2022-08-28T16:34:44.688Z,1.50
2022-08-28T16:37:19.440Z,1.75
2022-08-28T16:39:53.532Z,1.55
2022-08-28T16:42:20.543Z,1.67
2022-08-28T16:44:47.789Z,1.60
2022-08-28T16:47:17.602Z,1.90
2022-08-28T16:49:44.310Z,1.30
2022-08-28T16:52:11.130Z,1.40
2022-08-28T16:54:38.088Z,1.38
2022-08-28T16:57:15.914Z,1.63
2022-08-28T16:59:43.764Z,1.30
2022-08-28T17:02:13.273Z,1.30
2022-08-28T17:04:40.712Z,0.90
2022-08-28T17:07:07.582Z,1.90
2022-08-28T17:09:34.464Z,1.35
2022-08-28T17:12:01.341Z,1.15
2022-08-28T17:14:32.325Z,1.23
2022-08-28T17:16:59.177Z,1.80
2022-08-28T17:19:28.903Z,1.30
2022-08-28T17:21:55.847Z,1.20
2022-08-28T17:24:22.630Z,1.13
2022-08-28T17:26:49.403Z,1.10
2022-08-28T17:29:16.253Z,1.15
2022-08-28T17:31:46.483Z,1.25
2022-08-28T17:34:13.449Z,1.77
2022-08-28T17:36:41.687Z,1.45
2022-08-28T17:39:11.292Z,1.38
2022-08-28T17:44:07.123Z,1.50
2022-08-28T17:46:37.959Z,1.30
2022-08-28T17:49:08.224Z,1.48
2022-08-28T17:51:42.976Z,1.20
2022-08-28T17:54:11.473Z,1.27
2022-08-28T17:56:38.217Z,1.15
2022-08-28T17:59:04.971Z,1.40
2022-08-28T18:01:31.854Z,1.08
2022-08-28T18:04:01.760Z,1.55
2022-08-28T18:06:29.990Z,1.27
2022-08-28T18:09:00.218Z,1.40
2022-08-28T18:11:27.403Z,1.33
2022-08-28T18:13:56.229Z,1.52
2022-08-28T18:16:26.558Z,1.40
2022-08-28T18:19:05.201Z,1.25
2022-08-28T18:21:36.745Z,1.48
2022-08-28T18:24:04.818Z,1.35
2022-08-28T18:26:35.345Z,1.45
2022-08-28T18:29:02.440Z,1.33
2022-08-28T18:31:32.138Z,1.50
2022-08-28T18:34:02.165Z,1.48
2022-08-28T18:36:34.568Z,1.17
2022-08-28T18:39:03.574Z,1.20
2022-08-28T18:41:43.735Z,1.48
2022-08-28T18:44:14.771Z,1.42
2022-08-28T18:46:49.410Z,1.73
2022-08-28T18:49:17.127Z,1.65
2022-08-28T18:51:47.839Z,1.30
2022-08-28T18:54:22.056Z,1.20
2022-08-28T18:56:50.482Z,1.42
2022-08-28T18:59:18.075Z,2.25
2022-08-28T19:01:52.113Z,1.70
2022-08-28T19:04:40.468Z,2.00
2022-08-28T19:07:11.385Z,1.80
2022-08-28T19:09:46.047Z,1.55
2022-08-28T19:12:16.851Z,1.45
2022-08-28T19:14:52.166Z,1.58
2022-08-28T19:17:21.064Z,1.70
2022-08-28T19:19:48.880Z,2.25
2022-08-28T19:22:24.886Z,1.63
2022-08-28T19:24:57.347Z,1.70
2022-08-28T19:27:27.162Z,1.63
2022-08-28T19:30:01.899Z,1.90
2022-08-28T19:32:29.151Z,1.67
2022-08-28T19:34:56.221Z,2.20
2022-08-28T19:37:29.183Z,2.10
2022-08-28T19:40:09.351Z,1.98
2022-08-28T19:42:50.550Z,2.50
2022-08-28T19:45:29.837Z,2.38
2022-08-28T19:48:01.112Z,2.08
2022-08-28T19:50:30.524Z,2.58
2022-08-28T19:53:04.805Z,3.15
2022-08-28T19:55:35.032Z,3.38
2022-08-28T19:58:07.118Z,4.05
2022-08-28T20:00:36.981Z,3.72
2022-08-28T20:03:04.405Z,3.60
2022-08-28T20:05:33.004Z,3.28
2022-08-28T20:08:05.690Z,3.67
2022-08-28T20:13:14.117Z,3.33
2022-08-28T20:15:42.382Z,3.90
2022-08-28T20:18:12.389Z,3.70
2022-08-28T20:20:39.688Z,3.20
2022-08-28T20:23:11.958Z,3.72
2022-08-28T20:25:50.204Z,3.90
2022-08-28T20:28:23.076Z,4.10
2022-08-28T20:30:57.266Z,4.18
2022-08-28T20:33:26.400Z,4.00
2022-08-28T20:36:01.115Z,3.50
2022-08-28T20:38:29.601Z,4.45
2022-08-28T20:41:03.427Z,4.20
2022-08-28T20:43:30.484Z,4.38
2022-08-28T20:45:59.986Z,3.90
2022-08-28T20:48:28.069Z,3.88
2022-08-28T20:50:55.868Z,4.22
2022-08-28T20:53:37.377Z,4.32
2022-08-28T20:56:07.009Z,4.32
2022-08-28T20:58:48.618Z,3.53
2022-08-28T21:03:43.404Z,4.05
2022-08-28T21:06:12.067Z,4.45
2022-08-28T21:08:51.172Z,3.83
2022-08-28T21:11:24.095Z,4.28
2022-08-28T21:14:01.267Z,4.25
2022-08-28T21:16:36.452Z,4.18
2022-08-28T21:19:15.890Z,4.30
2022-08-28T21:22:08.278Z,4.50
2022-08-28T21:24:46.720Z,4.47
2022-08-28T21:27:20.715Z,4.85
2022-08-28T21:29:49.006Z,4.10
2022-08-28T21:32:16.126Z,4.18
2022-08-28T21:34:43.217Z,4.15
2022-08-28T21:37:13.104Z,4.30
2022-08-28T21:39:48.102Z,4.10
2022-08-28T21:42:34.303Z,4.68
2022-08-28T21:47:45.871Z,4.07
2022-08-28T21:50:16.309Z,4.03
2022-08-28T21:52:47.726Z,4.05
2022-08-28T21:57:53.759Z,3.92
2022-08-28T22:00:26.654Z,4.10
2022-08-28T22:02:53.686Z,4.28
2022-08-28T22:05:25.099Z,4.18
2022-08-28T22:10:29.255Z,4.00
2022-08-28T22:13:00.996Z,3.70
2022-08-28T22:15:37.844Z,3.90
2022-08-28T22:18:07.852Z,3.63
2022-08-28T22:20:39.011Z,3.92
2022-08-28T22:23:06.015Z,4.00
2022-08-28T22:25:35.955Z,3.78
2022-08-28T22:28:14.545Z,3.72
2022-08-28T22:30:43.897Z,3.70
2022-08-28T22:33:12.928Z,3.42
2022-08-28T22:35:43.445Z,3.63
2022-08-28T22:38:13.130Z,3.30
2022-08-28T22:40:44.353Z,3.53
2022-08-28T22:43:16.986Z,3.63
2022-08-28T22:45:49.915Z,3.55
2022-08-28T22:48:18.050Z,3.47
2022-08-28T22:50:47.350Z,3.38
2022-08-28T22:53:17.590Z,4.05
2022-08-28T22:55:45.955Z,3.17
2022-08-28T22:58:21.750Z,3.35
2022-08-28T23:00:48.754Z,3.50
2022-08-28T23:03:19.957Z,3.40
2022-08-28T23:05:49.553Z,2.83
2022-08-28T23:08:16.464Z,3.10
2022-08-28T23:11:02.279Z,3.05
2022-08-28T23:13:30.385Z,2.95
2022-08-28T23:15:57.381Z,2.97
2022-08-28T23:18:27.756Z,3.35
2022-08-28T23:20:57.034Z,3.20
2022-08-28T23:23:25.025Z,2.72
2022-08-28T23:25:55.583Z,3.10
2022-08-28T23:28:24.981Z,3.37
2022-08-28T23:30:53.735Z,2.90
2022-08-28T23:33:29.789Z,2.80
2022-08-28T23:35:58.589Z,3.33
2022-08-28T23:38:32.938Z,2.58
2022-08-28T23:41:06.335Z,2.45
2022-08-28T23:46:26.236Z,3.17
2022-08-28T23:49:05.009Z,2.00
2022-08-28T23:51:32.143Z,2.55
2022-08-28T23:54:00.896Z,2.80
2022-08-28T23:56:37.192Z,2.72
2022-08-28T23:59:12.051Z,2.92
